createdAt,value
2016-12-06T12:20:20.815Z,176
2016-12-06T12:21:01.396Z,172
2016-12-06T12:21:42.038Z,168
2016-12-06T12:22:23.141Z,168
2016-12-06T12:23:03.634Z,168
2016-12-06T12:23:44.461Z,168
2016-12-06T12:24:25.014Z,172
2016-12-06T12:25:06.169Z,172
2016-12-06T12:25:46.804Z,168
2016-12-06T12:26:27.643Z,168
2016-12-06T12:27:08.824Z,168
2016-12-06T12:27:49.580Z,168
2016-12-06T12:28:30.113Z,168
2016-12-06T12:29:10.647Z,168
2016-12-06T12:29:51.596Z,168
2016-12-06T12:30:32.230Z,168
2016-12-06T12:31:12.881Z,168
2016-12-06T12:31:53.443Z,164
2016-12-06T12:32:33.939Z,164
2016-12-06T12:33:14.413Z,164
2016-12-06T12:33:55.162Z,164
2016-12-06T12:34:35.904Z,164
2016-12-06T12:35:17.153Z,164
2016-12-06T12:35:57.626Z,164
2016-12-06T12:36:38.156Z,164
2016-12-06T12:37:18.627Z,164
2016-12-06T12:39:47.648Z,160
2016-12-06T12:40:28.126Z,156
2016-12-06T12:41:08.617Z,164
2016-12-06T12:43:41.590Z,160
2016-12-06T12:44:22.137Z,160
2016-12-06T12:45:02.649Z,160
2016-12-06T12:45:43.137Z,160
2016-12-06T12:46:24.602Z,156
2016-12-06T12:47:05.055Z,160
2016-12-06T12:47:45.574Z,160
2016-12-06T12:48:26.024Z,156
2016-12-06T12:49:07.886Z,156
2016-12-06T12:49:48.451Z,152
2016-12-06T12:50:29.320Z,152
2016-12-06T12:51:10.413Z,152
2016-12-06T12:51:51.538Z,148
2016-12-06T12:52:32.140Z,156
2016-12-06T12:53:12.614Z,152
2016-12-06T12:53:53.068Z,152
2016-12-06T12:54:33.534Z,152
2016-12-06T12:55:14.020Z,152
2016-12-06T12:55:54.487Z,148
2016-12-06T12:56:35.111Z,148
2016-12-06T12:57:15.564Z,148
2016-12-06T12:57:56.097Z,152
2016-12-06T12:58:36.585Z,148
2016-12-06T12:59:17.042Z,148
2016-12-06T12:59:57.476Z,148
2016-12-06T13:00:37.950Z,152
2016-12-06T13:01:18.387Z,156
2016-12-06T13:01:58.891Z,160
2016-12-06T13:02:39.342Z,160
2016-12-06T13:03:19.831Z,160
2016-12-06T13:04:00.349Z,156
2016-12-06T13:04:40.894Z,156
2016-12-06T13:05:21.387Z,156
2016-12-06T13:06:01.848Z,124
2016-12-06T13:06:42.585Z,116
2016-12-06T13:07:23.217Z,104
2016-12-06T13:08:03.713Z,112
2016-12-06T13:08:44.199Z,84
2016-12-06T13:09:24.664Z,60
2016-12-06T13:10:05.142Z,60
2016-12-06T13:10:45.739Z,156
2016-12-06T13:11:26.283Z,152
2016-12-06T13:12:06.864Z,152
2016-12-06T13:12:47.335Z,156
2016-12-06T13:13:27.831Z,152
2016-12-06T13:14:08.326Z,152
2016-12-06T13:14:48.837Z,152
2016-12-06T13:15:29.335Z,152
2016-12-06T13:16:09.878Z,152
2016-12-06T13:16:50.402Z,152
2016-12-06T13:17:30.886Z,148
2016-12-06T13:18:11.381Z,148
2016-12-06T13:18:51.869Z,152
2016-12-06T13:19:32.381Z,148
2016-12-06T13:20:12.858Z,148
2016-12-06T13:20:53.369Z,148
2016-12-06T13:21:33.981Z,144
2016-12-06T13:22:14.464Z,148
2016-12-06T13:22:54.977Z,144
2016-12-06T13:23:35.428Z,148
2016-12-06T13:24:15.947Z,144
2016-12-06T13:24:56.712Z,144
2016-12-06T13:25:37.198Z,144
2016-12-06T13:26:17.786Z,140
2016-12-06T13:26:58.828Z,144
2016-12-06T13:27:39.626Z,140
2016-12-06T13:28:20.499Z,140
2016-12-06T13:29:00.997Z,144
2016-12-06T13:29:41.545Z,140
2016-12-06T13:30:22.040Z,140
2016-12-06T13:31:02.629Z,140
2016-12-06T13:31:43.094Z,140
2016-12-06T13:34:12.453Z,140
2016-12-06T13:34:53.199Z,140
2016-12-06T13:35:33.671Z,140
2016-12-06T13:36:14.155Z,132
2016-12-06T13:36:54.579Z,136
2016-12-06T13:37:35.078Z,136
2016-12-06T13:38:15.578Z,132
2016-12-06T13:38:56.153Z,132
2016-12-06T13:39:36.711Z,128
2016-12-06T13:40:17.480Z,132
2016-12-06T13:42:45.711Z,128
2016-12-06T13:43:26.195Z,128
2016-12-06T13:44:06.723Z,124
2016-12-06T13:44:47.193Z,128
2016-12-06T13:45:27.692Z,124
2016-12-06T13:46:08.157Z,124
2016-12-06T13:46:48.624Z,124
2016-12-06T13:47:29.096Z,120
2016-12-06T13:48:10.397Z,120
2016-12-06T13:48:52.846Z,120
2016-12-06T13:49:33.464Z,120
2016-12-06T13:50:13.991Z,116
2016-12-06T13:50:54.738Z,120
2016-12-06T13:51:35.584Z,120
2016-12-06T13:52:16.266Z,120
2016-12-06T13:52:57.430Z,120
2016-12-06T13:53:39.527Z,120
2016-12-06T13:54:20.006Z,116
2016-12-06T13:55:00.938Z,116
2016-12-06T13:55:41.654Z,116
2016-12-06T13:56:22.833Z,116
2016-12-06T13:57:03.393Z,116
2016-12-06T13:57:43.906Z,116
2016-12-06T13:58:24.567Z,116
2016-12-06T13:59:05.176Z,116
2016-12-06T13:59:47.160Z,116
2016-12-06T14:00:27.937Z,116
2016-12-06T14:01:08.622Z,112
2016-12-06T14:03:09.142Z,112
2016-12-06T14:03:52.343Z,112
2016-12-06T14:04:33.068Z,112
2016-12-06T14:05:13.580Z,112
2016-12-06T14:05:54.504Z,112
2016-12-06T14:06:36.427Z,112
2016-12-06T14:07:17.052Z,108
2016-12-06T14:07:58.806Z,108
2016-12-06T14:08:40.716Z,108
2016-12-06T14:09:21.467Z,112
2016-12-06T14:10:02.033Z,108
2016-12-06T14:10:42.561Z,108
2016-12-06T14:11:23.063Z,108
2016-12-06T14:12:03.983Z,104
2016-12-06T14:12:44.560Z,108
2016-12-06T14:13:25.168Z,104
2016-12-06T14:14:05.636Z,104
2016-12-06T14:14:46.135Z,104
2016-12-06T14:15:26.631Z,104
2016-12-06T14:16:07.209Z,100
2016-12-06T14:16:47.720Z,104
2016-12-06T14:17:28.190Z,104
2016-12-06T14:18:08.688Z,100
2016-12-06T14:18:49.180Z,100
2016-12-06T14:19:29.644Z,100
2016-12-06T14:20:10.285Z,100
2016-12-06T14:22:08.987Z,96
2016-12-06T14:22:49.449Z,92
2016-12-06T14:23:29.886Z,92
2016-12-06T14:24:10.373Z,96
2016-12-06T14:24:50.977Z,92
2016-12-06T14:25:31.460Z,96
2016-12-06T14:26:13.676Z,96
2016-12-06T14:26:54.472Z,92
2016-12-06T14:27:34.992Z,92
2016-12-06T14:28:24.341Z,92
2016-12-06T14:29:04.764Z,92
2016-12-06T14:29:45.552Z,88
2016-12-06T14:30:26.148Z,88
2016-12-06T14:32:54.056Z,88
2016-12-06T14:33:34.751Z,84
2016-12-06T14:34:15.330Z,84
2016-12-06T14:36:28.609Z,80
2016-12-06T14:37:09.622Z,80
2016-12-06T14:37:50.234Z,80
2016-12-06T14:38:31.229Z,84
2016-12-06T14:39:12.078Z,80
2016-12-06T14:39:53.159Z,84
2016-12-06T14:40:34.061Z,80
2016-12-06T14:41:15.102Z,80
2016-12-06T14:41:56.273Z,80
2016-12-06T14:42:36.836Z,80
2016-12-06T14:43:17.438Z,80
2016-12-06T14:45:35.420Z,80
2016-12-06T14:46:17.086Z,76
2016-12-06T14:46:57.669Z,72
2016-12-06T14:47:38.200Z,72
2016-12-06T14:48:22.890Z,72
2016-12-06T14:49:03.465Z,76
2016-12-06T14:49:46.045Z,72
2016-12-06T14:50:28.454Z,72
2016-12-06T14:51:08.933Z,72
2016-12-06T14:51:49.598Z,68
2016-12-06T14:52:30.090Z,68
2016-12-06T14:53:11.015Z,68
2016-12-06T14:53:51.460Z,68
2016-12-06T14:54:31.943Z,68
2016-12-06T14:55:12.481Z,68
2016-12-06T14:55:52.856Z,68
2016-12-06T14:56:33.340Z,68
2016-12-06T14:57:13.849Z,64
2016-12-06T14:57:54.304Z,64
2016-12-06T14:58:34.753Z,68
2016-12-06T14:59:15.282Z,64
2016-12-06T14:59:55.662Z,64
2016-12-06T15:00:36.383Z,64
2016-12-06T15:01:16.958Z,64
2016-12-06T15:01:57.462Z,64
2016-12-06T15:02:37.966Z,64
2016-12-06T15:03:18.477Z,64
2016-12-06T15:03:58.980Z,60
2016-12-06T15:04:39.677Z,64
2016-12-06T15:05:20.098Z,64
2016-12-06T15:06:00.610Z,64
2016-12-06T15:06:41.041Z,64
2016-12-06T15:07:21.693Z,64
2016-12-06T15:08:02.793Z,60
2016-12-06T15:08:45.828Z,60
2016-12-06T15:09:26.272Z,60
2016-12-06T15:10:07.630Z,56
2016-12-06T15:10:48.092Z,60
2016-12-06T15:11:28.553Z,56
2016-12-06T15:12:09.044Z,60
2016-12-06T15:12:49.505Z,60
2016-12-06T15:13:30.061Z,60
2016-12-06T15:14:10.572Z,60
2016-12-06T15:16:23.322Z,56
2016-12-06T15:17:03.796Z,56
2016-12-06T15:17:44.316Z,56
2016-12-06T15:18:24.981Z,56
2016-12-06T15:19:05.487Z,56
2016-12-06T15:19:45.974Z,56
2016-12-06T15:20:26.501Z,48
2016-12-06T15:21:06.953Z,56
2016-12-06T15:21:48.173Z,56
2016-12-06T15:22:28.786Z,52
2016-12-06T15:23:09.525Z,52
2016-12-06T15:23:51.355Z,52
2016-12-06T15:24:31.793Z,52
2016-12-06T15:25:12.471Z,52
2016-12-06T15:25:52.988Z,52
2016-12-06T15:26:33.496Z,56
2016-12-06T15:27:13.929Z,56
2016-12-06T15:27:54.414Z,56
2016-12-06T15:28:34.868Z,56
2016-12-06T15:29:15.426Z,52
2016-12-06T15:29:56.919Z,56
2016-12-06T15:30:37.719Z,52
2016-12-06T15:31:18.181Z,48
2016-12-06T15:31:58.665Z,52
2016-12-06T15:32:39.137Z,52
2016-12-06T15:33:19.644Z,52
2016-12-06T15:34:00.144Z,52
2016-12-06T15:34:40.603Z,52
2016-12-06T15:35:21.068Z,52
2016-12-06T15:36:01.544Z,52
2016-12-06T15:36:41.993Z,52
2016-12-06T15:37:22.492Z,52
2016-12-06T15:38:02.957Z,52
2016-12-06T15:38:43.490Z,52
2016-12-06T15:39:24.015Z,52
2016-12-06T15:40:04.552Z,52
2016-12-06T15:40:45.011Z,52
2016-12-06T15:41:25.473Z,52
2016-12-06T15:42:06.029Z,52
2016-12-06T15:44:03.826Z,52
2016-12-06T15:44:44.306Z,52
2016-12-06T15:45:33.343Z,52
2016-12-06T15:46:13.797Z,52
2016-12-06T15:46:54.238Z,52
2016-12-06T15:47:34.692Z,52
2016-12-06T15:48:15.146Z,52
2016-12-06T15:48:55.640Z,56
2016-12-06T15:49:37.147Z,60
2016-12-06T15:50:17.624Z,52
2016-12-06T15:50:58.194Z,56
2016-12-06T15:51:38.636Z,48
2016-12-06T15:52:19.996Z,40
2016-12-06T15:53:00.514Z,40
2016-12-06T15:53:40.970Z,40
2016-12-06T15:54:21.425Z,40
2016-12-06T15:55:01.905Z,40
2016-12-06T15:55:42.472Z,44
2016-12-06T15:56:23.145Z,40
2016-12-06T15:57:03.552Z,40
2016-12-06T15:57:44.008Z,40
2016-12-06T15:58:24.455Z,40
2016-12-06T15:59:05.015Z,40
2016-12-06T15:59:45.457Z,40
2016-12-06T16:00:25.907Z,44
2016-12-06T16:01:06.369Z,44
2016-12-06T16:01:46.815Z,40
2016-12-06T16:02:27.341Z,44
2016-12-06T16:03:07.806Z,44
2016-12-06T16:03:48.649Z,44
2016-12-06T16:04:29.167Z,40
2016-12-06T16:05:09.621Z,40
2016-12-06T16:05:50.911Z,40
2016-12-06T16:06:31.373Z,40
2016-12-06T16:07:11.863Z,40
2016-12-06T16:07:52.318Z,40
2016-12-06T16:08:32.840Z,40
2016-12-06T16:09:13.284Z,40
2016-12-06T16:09:53.770Z,40
2016-12-06T16:10:34.531Z,40
2016-12-06T16:11:14.981Z,40
2016-12-06T16:11:55.425Z,12
2016-12-06T16:12:35.881Z,48
2016-12-06T16:13:16.364Z,48
2016-12-06T16:13:56.810Z,48
2016-12-06T16:14:37.245Z,48
2016-12-06T16:15:17.695Z,48
2016-12-06T16:15:58.181Z,48
2016-12-06T16:16:38.645Z,48
2016-12-06T16:17:19.098Z,48
2016-12-06T16:17:59.563Z,52
2016-12-06T16:18:40.025Z,48
2016-12-06T16:19:20.488Z,48
2016-12-06T16:20:00.975Z,48
2016-12-06T16:20:41.428Z,48
2016-12-06T16:21:21.894Z,48
2016-12-06T16:22:02.345Z,48
2016-12-06T16:22:42.817Z,48
2016-12-06T16:23:23.325Z,48
2016-12-06T16:24:03.835Z,48
2016-12-06T16:24:44.314Z,48
2016-12-06T16:25:24.794Z,48
2016-12-06T16:26:05.250Z,52
2016-12-06T16:26:45.709Z,52
2016-12-06T16:27:26.186Z,52
2016-12-06T16:28:06.634Z,48
2016-12-06T16:28:47.116Z,48
2016-12-06T16:29:27.603Z,52
2016-12-06T16:30:08.079Z,48
2016-12-06T16:30:48.541Z,52
2016-12-06T16:31:29.008Z,52
2016-12-06T16:32:09.473Z,52
2016-12-06T16:32:49.940Z,52
2016-12-06T16:33:30.397Z,48
2016-12-06T16:34:10.890Z,48
2016-12-06T16:34:51.350Z,48
2016-12-06T16:35:31.819Z,52
2016-12-06T16:36:12.275Z,52
2016-12-06T16:36:52.747Z,48
2016-12-06T16:37:33.195Z,52
2016-12-06T16:38:13.854Z,48
2016-12-06T16:38:54.288Z,52
2016-12-06T16:39:34.816Z,48
2016-12-06T16:40:15.294Z,52
2016-12-06T16:40:55.765Z,48
2016-12-06T16:41:36.224Z,48
2016-12-06T16:42:16.695Z,48
2016-12-06T16:42:57.196Z,48
2016-12-06T16:43:37.772Z,48
2016-12-06T16:44:18.245Z,48
2016-12-06T16:44:58.696Z,48
2016-12-06T16:45:39.191Z,48
2016-12-06T16:46:19.678Z,48
2016-12-06T16:47:00.124Z,48
2016-12-06T16:48:58.051Z,48
2016-12-06T16:49:38.536Z,48
2016-12-06T16:50:19.064Z,48
2016-12-06T16:50:59.540Z,52
2016-12-06T16:51:40.004Z,52
2016-12-06T16:52:20.446Z,48
2016-12-06T16:53:00.924Z,48
2016-12-06T16:53:41.716Z,52
2016-12-06T16:54:22.218Z,48
2016-12-06T16:55:03.229Z,48
2016-12-06T16:55:43.739Z,48
2016-12-06T16:56:24.273Z,48
2016-12-06T16:57:05.216Z,48
2016-12-06T16:57:45.742Z,48
2016-12-06T16:58:26.192Z,48
2016-12-06T16:59:06.666Z,48
2016-12-06T16:59:47.123Z,48
2016-12-06T17:00:27.585Z,48
2016-12-06T17:01:08.133Z,48
2016-12-06T17:01:48.606Z,52
2016-12-06T17:02:29.041Z,48
2016-12-06T17:03:09.583Z,52
2016-12-06T17:03:50.035Z,48
2016-12-06T17:04:30.512Z,52
2016-12-06T17:05:11.021Z,48
2016-12-06T17:05:51.524Z,52
2016-12-06T17:06:31.988Z,52
2016-12-06T17:07:12.452Z,56
2016-12-06T17:07:53.089Z,52
2016-12-06T17:08:33.647Z,56
2016-12-06T17:09:14.162Z,56
2016-12-06T17:09:54.630Z,52
2016-12-06T17:10:35.129Z,52
2016-12-06T17:11:15.588Z,52
2016-12-06T17:11:56.100Z,52
2016-12-06T17:12:36.563Z,52
2016-12-06T17:13:17.044Z,52
2016-12-06T17:13:57.577Z,56
2016-12-06T17:14:38.108Z,52
2016-12-06T17:15:18.560Z,56
2016-12-06T17:15:59.016Z,52
2016-12-06T17:16:39.479Z,56
2016-12-06T17:17:19.940Z,52
2016-12-06T17:18:00.398Z,52
2016-12-06T17:20:28.738Z,52
2016-12-06T17:21:09.204Z,52
2016-12-06T17:21:49.664Z,52
2016-12-06T17:22:30.121Z,52
2016-12-06T17:23:10.622Z,52
2016-12-06T17:23:51.076Z,52
2016-12-06T17:24:31.514Z,56
2016-12-06T17:25:12.042Z,52
2016-12-06T17:25:52.517Z,52
2016-12-06T17:26:33.117Z,52
2016-12-06T17:27:13.628Z,56
2016-12-06T17:27:54.102Z,52
2016-12-06T17:28:34.565Z,52
2016-12-06T17:29:15.035Z,52
2016-12-06T17:29:55.490Z,56
2016-12-06T17:30:35.957Z,48
2016-12-06T17:31:16.427Z,48
2016-12-06T17:31:56.896Z,48
2016-12-06T17:32:37.352Z,48
2016-12-06T17:33:17.928Z,52
2016-12-06T17:33:58.479Z,56
2016-12-06T17:34:38.929Z,52
2016-12-06T17:35:19.388Z,52
2016-12-06T17:35:59.843Z,52
2016-12-06T17:36:40.324Z,52
2016-12-06T17:37:20.777Z,52
2016-12-06T17:38:01.251Z,52
2016-12-06T17:38:41.722Z,52
2016-12-06T17:39:22.197Z,52
2016-12-06T17:40:02.675Z,52
2016-12-06T17:40:43.182Z,52
2016-12-06T17:41:23.739Z,52
2016-12-06T17:42:04.199Z,52
2016-12-06T17:42:44.720Z,52
2016-12-06T17:43:25.169Z,52
2016-12-06T17:44:05.638Z,52
2016-12-06T17:44:46.109Z,44
2016-12-06T17:45:26.581Z,44
2016-12-06T17:46:07.057Z,44
2016-12-06T17:46:47.539Z,44
2016-12-06T17:47:28.064Z,44
2016-12-06T17:48:08.577Z,44
2016-12-06T17:48:49.049Z,48
2016-12-06T17:49:29.516Z,48
2016-12-06T17:50:09.986Z,48
2016-12-06T17:50:50.462Z,48
2016-12-06T17:51:30.908Z,48
2016-12-06T17:52:11.373Z,48
2016-12-06T17:52:51.852Z,48
2016-12-06T17:53:32.311Z,48
2016-12-06T17:54:12.776Z,48
2016-12-06T17:54:53.454Z,48
2016-12-06T17:55:33.983Z,48
2016-12-06T17:56:14.427Z,48
2016-12-06T17:56:54.896Z,48
2016-12-06T17:57:35.702Z,48
2016-12-06T17:58:16.146Z,48
2016-12-06T17:58:56.608Z,48
2016-12-06T17:59:37.144Z,48
2016-12-06T18:00:17.983Z,52
2016-12-06T18:00:58.356Z,52
2016-12-06T18:01:38.951Z,52
2016-12-06T18:02:19.413Z,52
2016-12-06T18:02:59.881Z,52
2016-12-06T18:03:40.352Z,52
2016-12-06T18:04:20.837Z,52
2016-12-06T18:05:01.316Z,44
